SKJ weather

CLOSED Sitkinak Airport
Sitkinak Island, Alaska, United States

Public forecast

Using degrees Fahrenheit for public forecast. Weather courtesy of forecast.io.

METAR (pilot weather report)

Closest report is Akhiok Airport, 24.1 nm (44.7 km) N. Retrieved 2019/09/17 17:07 UTC (51 minutes ago):

PAKH 171707Z AUTO 25008KT FEW008 SCT045 OVC055 12/12 A2981 RMK AO2 PWINO $

TAF (pilot weather forecast)

Closest forecast is Kodiak Airport, 90.4 nm (167.4 km) NE. Retrieved 2019/09/17 12:42 UTC (5 hours ago):

TAF PADQ 171140Z 1712/1812 27007KT P6SM SKC FM171800 12007KT P6SM VCSH SCT050 BKN100 FM172100 12008KT P6SM -RA BKN040 OVC080 FM180800 13010KT 4SM -RA BR OVC007